Time;durP1;ratioP1;P1;durP2;ratioP2;P2;SDS_P1;SDS_P2;PMS_P1;PMS_P2;Temp;Humidity;BMP_temperature;BMP_pressure;BME280_temperature;BME280_humidity;BME280_pressure;Samples;Min_cycle;Max_cycle;Signal;HPM_P1;HPM_P2
2022/09/05 00:02:01;;;;;;;5.32;4.82;;;;;;;19.06;61.02;99358.38;5059989;28;20111;-81
2022/09/05 00:04:35;;;;;;;5.28;4.30;;;;;;;18.97;61.26;99350.09;5060585;28;20041;-80
2022/09/05 00:07:11;;;;;;;6.35;4.47;;;;;;;18.99;61.20;99358.72;5063466;28;20099;-81
2022/09/05 00:09:36;;;;;;;5.13;4.63;;;;;;;19.04;61.01;99360.56;5081286;28;20020;-80
2022/09/05 00:12:04;;;;;;;5.63;4.82;;;;;;;18.92;61.13;99352.06;5064935;28;20775;-81
2022/09/05 00:15:01;;;;;;;5.13;4.72;;;;;;;18.91;61.61;99362.09;5061518;28;20059;-80
2022/09/05 00:17:40;;;;;;;6.18;4.95;;;;;;;18.88;61.15;99357.25;5063101;28;20489;-81
2022/09/05 00:20:06;;;;;;;5.90;5.00;;;;;;;18.94;61.20;99352.56;5058543;28;20689;-81
2022/09/05 00:22:41;;;;;;;6.78;4.68;;;;;;;18.86;61.78;99353.22;5059169;28;20028;-81
2022/09/05 00:25:31;;;;;;;6.50;4.40;;;;;;;18.86;61.57;99354.03;5058023;28;20631;-81
2022/09/05 00:28:02;;;;;;;7.70;5.40;;;;;;;18.79;61.95;99363.59;5057367;28;20362;-81
2022/09/05 00:30:44;;;;;;;5.35;4.95;;;;;;;18.69;61.66;99341.00;5062953;28;20040;-80
2022/09/05 00:33:51;;;;;;;5.70;5.07;;;;;;;18.82;61.45;99365.72;5063739;28;20463;-80
2022/09/05 00:36:24;;;;;;;6.82;4.78;;;;;;;18.62;61.67;99345.13;5037151;28;20040;-80
2022/09/05 00:38:59;;;;;;;6.03;4.70;;;;;;;18.78;61.99;99360.09;5080487;28;20132;-80
2022/09/05 00:41:26;;;;;;;5.75;4.97;;;;;;;18.58;61.58;99344.91;5065716;28;20020;-80
2022/09/05 00:43:53;;;;;;;5.43;4.93;;;;;;;18.60;61.90;99347.31;5064959;28;20029;-81
2022/09/05 00:46:38;;;;;;;6.10;4.93;;;;;;;18.57;61.69;99339.78;5041324;28;20138;-80
2022/09/05 00:49:35;;;;;;;5.63;4.68;;;;;;;18.69;62.18;99368.03;5044611;28;20036;-80
2022/09/05 00:52:06;;;;;;;7.13;4.85;;;;;;;18.68;61.86;99365.59;5059649;28;20032;-80
2022/09/05 00:54:50;;;;;;;6.20;4.80;;;;;;;18.55;61.92;99369.00;5059364;28;20061;-80
2022/09/05 00:57:34;;;;;;;7.65;5.18;;;;;;;18.63;62.11;99374.56;5059778;28;20032;-80
2022/09/05 01:00:09;;;;;;;6.32;5.20;;;;;;;18.53;62.06;99360.38;5056955;28;20066;-81
2022/09/05 01:03:12;;;;;;;4.57;4.18;;;;;;;18.58;62.18;99371.94;5056840;28;20389;-81
2022/09/05 01:05:49;;;;;;;7.45;5.15;;;;;;;18.55;62.09;99366.28;5065077;28;20032;-81
2022/09/05 01:08:36;;;;;;;6.03;5.07;;;;;;;18.44;62.06;99371.00;5063907;28;20032;-80
2022/09/05 01:11:18;;;;;;;;;;;;;;;18.50;61.97;99372.56;5063248;28;20024;-80
2022/09/05 01:14:16;;;;;;;6.40;5.57;;;;;;;18.47;62.26;99377.75;5058301;28;19920;-81
2022/09/05 01:17:07;;;;;;;5.72;5.10;;;;;;;18.29;61.79;99351.41;5061113;28;20135;-81
2022/09/05 01:20:13;;;;;;;6.25;5.20;;;;;;;18.51;61.99;99381.47;5060381;28;20033;-81
2022/09/05 01:22:41;;;;;;;5.85;5.35;;;;;;;18.42;61.86;99389.38;4984216;28;20034;-81
2022/09/05 01:25:28;;;;;;;6.65;5.20;;;;;;;18.49;62.37;99379.06;4982343;28;20056;-81
2022/09/05 01:28:16;;;;;;;5.88;4.70;;;;;;;18.44;62.19;99364.75;5036536;28;20036;-81
2022/09/05 01:31:07;;;;;;;5.50;5.00;;;;;;;18.37;62.18;99367.03;5061297;28;20028;-81
2022/09/05 01:33:42;;;;;;;7.05;5.20;;;;;;;18.49;62.47;99372.84;5074380;28;21715;-80
2022/09/05 01:36:41;;;;;;;5.85;5.30;;;;;;;18.46;62.17;99373.41;5065375;28;20029;-81
2022/09/05 01:39:23;;;;;;;7.25;5.35;;;;;;;18.40;62.78;99377.25;5061005;28;20032;-81
2022/09/05 01:41:59;;;;;;;5.15;4.75;;;;;;;18.38;62.81;99374.03;5062814;28;20036;-81
2022/09/05 01:45:03;;;;;;;8.70;5.70;;;;;;;18.40;62.12;99375.34;5057468;28;20027;-81
2022/09/05 01:47:47;;;;;;;8.57;5.10;;;;;;;18.35;62.68;99377.28;4996026;28;20180;-80
2022/09/05 01:50:31;;;;;;;5.90;5.30;;;;;;;18.17;62.41;99348.31;5056808;28;20431;-81
2022/09/05 01:53:24;;;;;;;7.75;5.05;;;;;;;18.34;62.63;99379.22;5059905;28;20085;-81
2022/09/05 01:56:14;;;;;;;5.47;4.90;;;;;;;18.31;62.84;99376.25;5062605;28;20046;-81
2022/09/05 01:58:47;;;;;;;5.93;5.30;;;;;;;18.27;62.91;99370.63;5063864;28;20049;-82
2022/09/05 02:01:29;;;;;;;8.95;5.15;;;;;;;18.31;62.50;99368.16;5054091;28;20024;-81
2022/09/05 02:04:36;;;;;;;6.28;5.13;;;;;;;18.25;62.62;99369.28;5061808;28;20980;-81
2022/09/05 02:07:21;;;;;;;5.60;4.90;;;;;;;18.28;62.65;99368.72;5044375;28;20511;-80
2022/09/05 02:10:00;;;;;;;9.18;5.55;;;;;;;18.23;62.91;99374.19;5074003;28;20037;-81
2022/09/05 02:12:47;;;;;;;5.57;4.85;;;;;;;18.16;63.12;99371.00;5062577;28;20073;-81
2022/09/05 02:15:21;;;;;;;6.75;5.50;;;;;;;18.19;62.65;99367.75;5061391;28;20111;-81
2022/09/05 02:17:57;;;;;;;6.05;5.45;;;;;;;18.24;62.93;99371.19;5061677;28;20082;-80
2022/09/05 02:20:27;;;;;;;5.70;5.20;;;;;;;18.14;62.90;99362.38;5040992;28;20074;-80
2022/09/05 02:23:06;;;;;;;5.88;5.28;;;;;;;18.21;62.74;99366.38;5061058;28;20065;-81
2022/09/05 02:25:56;;;;;;;7.30;5.30;;;;;;;18.20;62.67;99370.16;5061338;28;20035;-81
2022/09/05 02:28:48;;;;;;;5.60;5.10;;;;;;;17.98;62.96;99346.31;5061653;28;20028;-80
2022/09/05 02:31:48;;;;;;;6.25;5.65;;;;;;;18.11;63.09;99368.38;5059548;28;20119;-81
2022/09/05 02:34:26;;;;;;;6.53;5.40;;;;;;;18.04;62.80;99352.50;5047430;28;20040;-81
2022/09/05 02:37:24;;;;;;;8.85;5.75;;;;;;;18.09;63.09;99368.63;5046426;28;20045;-81
2022/09/05 02:39:59;;;;;;;11.80;7.57;;;;;;;18.07;62.84;99362.72;5064883;28;20040;-81
2022/09/05 02:42:35;;;;;;;7.80;6.18;;;;;;;18.04;62.85;99357.06;5072866;28;20128;-81
2022/09/05 02:45:13;;;;;;;5.72;5.15;;;;;;;17.95;63.61;99346.09;5062279;28;20024;-80
2022/09/05 02:48:21;;;;;;;7.20;5.82;;;;;;;17.76;63.45;99337.84;5073776;28;20024;-80
2022/09/05 02:51:02;;;;;;;6.18;5.68;;;;;;;17.97;62.92;99360.88;5054692;28;20041;-80
2022/09/05 02:53:29;;;;;;;6.38;5.72;;;;;;;17.56;64.10;99332.63;5057131;28;20153;-80
2022/09/05 02:56:00;;;;;;;5.72;5.22;;;;;;;17.96;63.50;99361.19;5059919;28;20034;-80
2022/09/05 02:58:54;;;;;;;8.57;5.82;;;;;;;17.49;63.85;99345.63;5057483;28;20020;-80
2022/09/05 03:01:48;;;;;;;9.82;6.72;;;;;;;17.43;64.59;99351.34;5061480;28;20032;-81
2022/09/05 03:04:24;;;;;;;6.53;5.93;;;;;;;17.81;63.75;99351.31;5057924;28;20480;-80
2022/09/05 03:07:12;;;;;;;6.50;5.68;;;;;;;17.82;63.38;99352.94;5062508;28;20115;-82
2022/09/05 03:09:52;;;;;;;7.88;6.55;;;;;;;17.90;63.00;99357.75;5059623;28;20119;-81
2022/09/05 03:12:36;;;;;;;6.35;5.72;;;;;;;17.82;63.49;99352.94;5080805;28;20516;-81
2022/09/05 03:15:39;;;;;;;7.50;5.38;;;;;;;17.76;63.90;99343.25;5064767;28;20133;-81
2022/09/05 03:18:42;;;;;;;10.52;5.93;;;;;;;17.76;63.94;99350.56;5065401;28;20024;-81
2022/09/05 03:21:54;;;;;;;7.22;6.40;;;;;;;17.75;63.55;99352.47;5059772;28;20027;-82
2022/09/05 03:24:57;;;;;;;6.40;5.80;;;;;;;17.56;64.30;99324.53;5063818;28;20089;-81
2022/09/05 03:28:09;;;;;;;7.32;6.38;;;;;;;17.62;63.75;99328.81;5070877;28;20025;-82
2022/09/05 03:30:58;;;;;;;6.30;5.70;;;;;;;17.69;63.86;99345.47;5066665;28;20515;-81
2022/09/05 03:33:52;;;;;;;5.63;5.13;;;;;;;17.69;64.18;99347.38;5053361;28;20086;-81
2022/09/05 03:36:39;;;;;;;7.43;5.95;;;;;;;17.64;64.43;99339.31;5064615;28;20036;-81
2022/09/05 03:39:23;;;;;;;7.13;6.05;;;;;;;17.57;64.04;99353.13;5067341;28;20476;-81
2022/09/05 03:42:07;;;;;;;7.30;6.03;;;;;;;17.57;64.19;99357.72;5071107;28;20036;-82
2022/09/05 03:44:54;;;;;;;7.10;6.25;;;;;;;17.52;64.69;99358.56;5060992;28;20032;-81
2022/09/05 03:47:59;;;;;;;6.75;6.05;;;;;;;17.35;64.90;99331.13;5059939;28;20047;-83
2022/09/05 03:50:36;;;;;;;7.15;6.45;;;;;;;17.49;64.47;99359.13;5060848;28;20074;-81
2022/09/05 03:53:27;;;;;;;6.45;5.78;;;;;;;17.46;64.26;99358.84;5059571;28;20024;-81
2022/09/05 03:56:20;;;;;;;8.18;6.50;;;;;;;17.49;64.65;99363.69;5063238;28;20024;-81
2022/09/05 03:59:14;;;;;;;7.18;5.93;;;;;;;17.42;64.88;99363.19;5062570;28;20121;-80
2022/09/05 04:01:50;;;;;;;6.50;5.90;;;;;;;17.30;64.63;99349.25;5030829;28;20041;-81
2022/09/05 04:04:30;;;;;;;8.60;6.68;;;;;;;17.41;64.91;99365.09;5056808;28;20032;-80
2022/09/05 04:07:01;;;;;;;12.02;6.50;;;;;;;17.30;64.75;99350.03;5061577;28;20389;-80
2022/09/05 04:09:29;;;;;;;6.38;5.78;;;;;;;17.36;65.16;99369.72;5049546;28;20032;-81
2022/09/05 04:12:09;;;;;;;7.45;5.72;;;;;;;17.21;64.31;99340.97;5065109;28;20040;-81
2022/09/05 04:14:51;;;;;;;7.70;5.68;;;;;;;17.32;65.13;99364.06;5045409;28;20705;-80
2022/09/05 04:17:21;;;;;;;7.90;6.95;;;;;;;17.18;64.94;99363.91;5052348;28;20032;-79
2022/09/05 04:19:59;;;;;;;7.10;6.40;;;;;;;17.26;65.04;99370.56;5056023;28;20035;-79
2022/09/05 04:23:00;;;;;;;7.50;6.38;;;;;;;17.22;65.49;99377.63;5060434;28;20032;-79
2022/09/05 04:26:03;;;;;;;6.85;6.15;;;;;;;17.22;65.26;99377.63;5080274;28;20051;-79
2022/09/05 04:28:47;;;;;;;10.18;6.70;;;;;;;17.20;65.51;99375.22;5075089;28;20027;-79
2022/09/05 04:31:46;;;;;;;6.85;6.22;;;;;;;17.13;65.36;99360.41;5059928;28;20029;-79
2022/09/05 04:34:14;;;;;;;9.18;6.38;;;;;;;17.26;65.46;99381.38;5032605;28;20496;-79
2022/09/05 04:36:42;;;;;;;7.72;6.10;;;;;;;17.28;65.74;99381.13;5062321;28;20060;-79
2022/09/05 04:39:24;;;;;;;6.25;5.65;;;;;;;17.24;65.34;99364.66;5054851;28;20036;-79
2022/09/05 04:41:53;;;;;;;10.98;6.38;;;;;;;17.32;65.38;99368.69;5077157;28;20028;-79
2022/09/05 04:44:26;;;;;;;6.75;5.97;;;;;;;17.23;65.32;99371.94;5059293;28;20051;-79
2022/09/05 04:47:02;;;;;;;7.15;6.32;;;;;;;17.27;65.38;99374.09;5052949;28;20057;-79
2022/09/05 04:49:32;;;;;;;7.45;6.10;;;;;;;17.12;65.68;99350.72;5038260;28;20039;-80
2022/09/05 04:52:18;;;;;;;6.72;6.05;;;;;;;17.33;65.42;99387.28;5055885;28;20469;-79
2022/09/05 04:54:59;;;;;;;7.25;6.32;;;;;;;17.41;65.67;99383.97;5059123;28;20059;-79
2022/09/05 04:58:01;;;;;;;8.48;5.60;;;;;;;17.31;65.67;99396.72;5059096;28;20033;-80
2022/09/05 05:00:53;;;;;;;8.32;6.38;;;;;;;17.22;65.41;99362.25;5064411;28;20025;-80
2022/09/05 05:03:24;;;;;;;7.18;5.82;;;;;;;17.30;65.68;99387.81;5059271;28;20036;-80
2022/09/05 05:05:56;;;;;;;9.38;6.75;;;;;;;17.20;65.58;99377.09;5053939;28;20081;-81
2022/09/05 05:08:34;;;;;;;7.78;6.25;;;;;;;17.38;65.47;99408.84;5060236;28;20037;-80
2022/09/05 05:11:09;;;;;;;7.95;6.15;;;;;;;17.35;65.23;99408.56;5058041;28;20165;-80
2022/09/05 05:14:19;;;;;;;7.13;6.43;;;;;;;17.33;66.01;99413.44;5055017;28;20166;-80
2022/09/05 05:17:10;;;;;;;12.80;6.78;;;;;;;17.43;65.57;99416.88;4993038;28;20046;-81
2022/09/05 05:19:39;;;;;;;6.85;5.90;;;;;;;17.48;65.04;99416.06;4994558;28;20045;-80
2022/09/05 05:22:12;;;;;;;7.10;5.85;;;;;;;17.27;65.33;99391.09;5042271;28;20132;-80
2022/09/05 05:24:43;;;;;;;9.75;6.10;;;;;;;17.54;65.20;99423.09;5053002;28;20468;-80
2022/09/05 05:27:14;;;;;;;8.90;6.40;;;;;;;17.41;65.70;99424.47;5062915;28;20032;-80
2022/09/05 05:29:47;;;;;;;10.35;6.13;;;;;;;17.55;65.21;99411.19;5072624;28;20028;-80
2022/09/05 05:32:22;;;;;;;6.70;5.97;;;;;;;17.73;64.47;99424.03;5062005;28;21914;-80
2022/09/05 05:34:53;;;;;;;7.20;6.13;;;;;;;17.61;64.32;99405.47;5063879;28;20451;-80
2022/09/05 05:37:40;;;;;;;7.93;6.78;;;;;;;17.59;64.34;99421.16;5060634;28;20040;-80
2022/09/05 05:40:17;;;;;;;11.00;6.53;;;;;;;17.66;64.11;99420.84;5064175;28;20058;-80
2022/09/05 05:42:45;;;;;;;13.38;7.90;;;;;;;17.70;64.67;99414.59;5067221;28;20031;-79
2022/09/05 05:45:26;;;;;;;9.52;7.35;;;;;;;17.56;66.17;99412.81;5049938;28;20029;-80
2022/09/05 05:47:57;;;;;;;10.20;6.82;;;;;;;17.78;64.66;99423.97;5062699;28;20508;-79
2022/09/05 05:50:35;;;;;;;9.15;6.32;;;;;;;17.86;nan;99428.81;5066839;28;20730;-80
2022/09/05 05:53:22;;;;;;;7.25;6.55;;;;;;;17.86;64.39;99426.91;5081113;28;20508;-80
2022/09/05 05:55:50;;;;;;;7.53;6.47;;;;;;;17.91;64.65;99421.44;5069272;28;20024;-79
2022/09/05 05:58:43;;;;;;;7.95;6.40;;;;;;;17.95;64.17;99430.59;5066343;28;20025;-79
2022/09/05 06:01:27;;;;;;;9.50;6.70;;;;;;;17.91;64.63;99436.84;5066916;28;20082;-79
2022/09/05 06:04:04;;;;;;;12.38;6.85;;;;;;;17.95;64.68;99427.91;5065566;28;20017;-79
2022/09/05 06:06:51;;;;;;;6.57;5.97;;;;;;;17.98;64.61;99437.34;5062541;28;20025;-79
2022/09/05 06:09:53;;;;;;;8.77;6.05;;;;;;;18.01;63.98;99439.50;5075679;28;20033;-80
2022/09/05 06:12:46;;;;;;;7.43;6.70;;;;;;;18.07;64.26;99437.53;5070897;28;20033;-79
2022/09/05 06:15:32;;;;;;;11.10;6.15;;;;;;;17.97;64.30;99435.75;5079382;28;20032;-80
2022/09/05 06:18:19;;;;;;;7.60;6.90;;;;;;;18.03;64.60;99442.72;5063724;28;20039;-79
2022/09/05 06:21:19;;;;;;;10.52;6.25;;;;;;;18.12;64.20;99448.31;5072438;28;20403;-79
2022/09/05 06:24:02;;;;;;;9.80;6.18;;;;;;;18.12;64.06;99437.50;5052019;28;20033;-80
2022/09/05 06:27:00;;;;;;;11.18;7.53;;;;;;;18.11;64.03;99442.09;5056276;28;20252;-79
2022/09/05 06:30:07;;;;;;;12.25;6.68;;;;;;;18.12;64.20;99448.31;5054025;28;20065;-79
2022/09/05 06:32:46;;;;;;;;;;;;;;;18.12;64.20;99438.31;5053524;28;20040;-80
2022/09/05 06:35:43;;;;;;;7.88;6.13;;;;;;;18.12;64.33;99448.31;5047446;28;19946;-80
2022/09/05 06:38:41;;;;;;;8.48;6.32;;;;;;;18.13;64.18;99450.72;5051770;28;20048;-80
2022/09/05 06:41:25;;;;;;;8.32;6.40;;;;;;;18.21;63.68;99449.31;5046635;28;20599;-80
2022/09/05 06:43:53;;;;;;;8.25;6.55;;;;;;;18.12;65.24;99446.44;5047370;28;20024;-80
2022/09/05 06:46:32;;;;;;;7.28;6.57;;;;;;;18.11;64.85;99441.31;5049404;28;20098;-80
2022/09/05 06:49:16;;;;;;;7.22;6.10;;;;;;;18.17;63.98;99434.78;5056863;28;20032;-80
2022/09/05 06:52:15;;;;;;;9.55;7.10;;;;;;;18.36;63.61;99443.78;5054840;28;20496;-79
2022/09/05 06:54:43;;;;;;;8.88;6.40;;;;;;;18.41;63.83;99439.13;5056325;28;20023;-80
2022/09/05 06:57:29;;;;;;;6.97;6.13;;;;;;;18.46;63.59;99441.81;5057335;28;20123;-80
2022/09/05 07:00:21;;;;;;;8.88;6.28;;;;;;;18.44;63.54;99435.03;5051733;28;20047;-80
2022/09/05 07:03:14;;;;;;;8.45;5.90;;;;;;;18.51;63.48;99439.06;5055316;28;20045;-80
2022/09/05 07:06:04;;;;;;;7.82;6.28;;;;;;;18.54;63.66;99441.19;5049151;28;20028;-80
2022/09/05 07:08:59;;;;;;;7.45;6.13;;;;;;;18.55;62.99;99426.59;5068976;28;20043;-80
2022/09/05 07:11:39;;;;;;;8.32;6.05;;;;;;;18.61;63.00;99436.25;5054176;28;20162;-80
2022/09/05 07:14:28;;;;;;;9.73;6.43;;;;;;;18.59;63.80;99448.44;5048984;28;20032;-80
2022/09/05 07:17:16;;;;;;;8.15;7.05;;;;;;;18.26;65.88;99446.59;5053546;28;20117;-80
2022/09/05 07:19:51;;;;;;;8.93;6.72;;;;;;;18.65;63.54;99444.63;5045912;28;20560;-80
2022/09/05 07:22:23;;;;;;;8.23;6.53;;;;;;;18.57;64.07;99451.44;5053993;28;20152;-80
2022/09/05 07:24:51;;;;;;;6.85;6.25;;;;;;;18.63;63.91;99453.00;5047827;28;20036;-80
2022/09/05 07:27:46;;;;;;;13.02;7.05;;;;;;;18.39;64.85;99448.63;5051596;28;20056;-82
2022/09/05 07:30:12;;;;;;;7.25;6.57;;;;;;;18.12;66.86;99443.72;5054377;28;20045;-81
2022/09/05 07:32:44;;;;;;;10.05;7.30;;;;;;;18.10;67.00;99445.91;5048137;28;20032;-82
2022/09/05 07:35:31;;;;;;;8.63;7.28;;;;;;;18.32;65.83;99456.25;5067457;28;20025;-81
2022/09/05 07:38:17;;;;;;;7.28;6.30;;;;;;;18.51;64.67;99457.19;5055342;28;20119;-81
2022/09/05 07:40:58;;;;;;;7.87;6.93;;;;;;;18.25;65.77;99450.38;5074641;28;20447;-81
2022/09/05 07:43:29;;;;;;;7.45;6.75;;;;;;;18.21;66.84;99457.44;5063358;28;20021;-81
2022/09/05 07:46:16;;;;;;;12.18;6.85;;;;;;;18.61;65.53;99460.59;5060513;28;20136;-82
2022/09/05 07:48:48;;;;;;;7.30;6.57;;;;;;;18.61;65.47;99451.66;5047302;28;20077;-82
2022/09/05 07:51:26;;;;;;;7.32;6.53;;;;;;;18.64;65.14;99440.28;5056091;28;20136;-82
2022/09/05 07:53:57;;;;;;;11.30;7.30;;;;;;;18.55;65.50;99458.22;5047032;28;20028;-81
2022/09/05 07:56:44;;;;;;;10.48;6.82;;;;;;;18.46;65.98;99462.63;5061326;28;20016;-81
2022/09/05 07:59:12;;;;;;;9.57;6.50;;;;;;;18.55;66.46;99453.63;5058074;28;20082;-81
2022/09/05 08:01:43;;;;;;;7.00;6.28;;;;;;;18.72;65.34;99431.53;5063007;28;20120;-82
2022/09/05 08:04:30;;;;;;;6.95;6.25;;;;;;;18.91;65.25;99445.97;5053780;28;20028;-81
2022/09/05 08:06:59;;;;;;;6.72;5.82;;;;;;;19.21;63.15;99434.75;5057974;28;20040;-82
2022/09/05 08:09:35;;;;;;;6.90;6.20;;;;;;;19.40;62.97;99459.16;5053602;28;20033;-82
2022/09/05 08:12:10;;;;;;;10.95;6.07;;;;;;;19.47;63.05;99456.09;5053642;28;20049;-82
2022/09/05 08:15:03;;;;;;;9.80;5.22;;;;;;;19.55;62.32;99455.47;5062681;28;20021;-82
2022/09/05 08:17:29;;;;;;;8.15;6.38;;;;;;;19.50;63.84;99461.75;5066234;28;20096;-82
2022/09/05 08:20:14;;;;;;;10.95;6.43;;;;;;;19.46;64.50;99440.97;5060689;28;20528;-82
2022/09/05 08:22:52;;;;;;;7.13;6.20;;;;;;;19.63;63.64;99462.94;5061028;28;20033;-82
2022/09/05 08:25:25;;;;;;;12.77;6.70;;;;;;;19.56;63.88;99447.03;5063741;28;20028;-81
2022/09/05 08:28:08;;;;;;;11.38;6.47;;;;;;;19.79;64.44;99454.28;5061365;28;20036;-82
2022/09/05 08:30:43;;;;;;;11.75;6.50;;;;;;;19.81;63.41;99459.44;5066117;28;20468;-82
2022/09/05 08:33:18;;;;;;;9.95;6.18;;;;;;;19.80;63.42;99453.19;5059155;28;20511;-81
2022/09/05 08:35:51;;;;;;;10.23;6.90;;;;;;;19.78;63.40;99435.63;5053900;28;20024;-81
2022/09/05 08:38:17;;;;;;;6.85;6.15;;;;;;;20.01;63.10;99453.69;5057172;28;20032;-82
2022/09/05 08:41:27;;;;;;;15.55;6.70;;;;;;;20.01;63.42;99454.50;5064950;28;20040;-82
2022/09/05 08:44:12;;;;;;;8.70;6.15;;;;;;;20.03;63.33;99455.00;5003236;28;20051;-82
2022/09/05 08:46:54;;;;;;;15.07;6.80;;;;;;;19.97;63.63;99425.56;5061018;28;20041;-81
2022/09/05 08:49:35;;;;;;;12.90;6.32;;;;;;;20.17;63.52;99446.91;5054125;28;20090;-81
2022/09/05 08:52:09;;;;;;;17.45;5.72;;;;;;;20.22;63.35;99444.16;5061065;28;20028;-82
2022/09/05 08:54:53;;;;;;;10.35;5.85;;;;;;;20.36;63.81;99441.47;5064550;28;20032;-81
2022/09/05 08:57:56;;;;;;;8.27;5.50;;;;;;;20.51;62.96;99446.66;5066903;28;20048;-82
2022/09/05 09:00:22;;;;;;;7.88;6.13;;;;;;;20.52;61.95;99427.34;5065364;28;20024;-82
2022/09/05 09:03:03;;;;;;;16.40;7.00;;;;;;;20.30;63.04;99419.06;5062155;28;20043;-82
2022/09/05 09:05:47;;;;;;;18.13;6.72;;;;;;;20.62;62.96;99437.22;5062914;28;20668;-82
2022/09/05 09:08:19;;;;;;;16.30;6.30;;;;;;;20.61;62.01;99422.03;5067013;28;20036;-82
2022/09/05 09:10:54;;;;;;;11.95;6.60;;;;;;;20.87;61.45;99431.31;5078096;28;20055;-83
2022/09/05 09:13:25;;;;;;;8.25;6.47;;;;;;;21.03;60.97;99434.53;5057078;28;20039;-83
2022/09/05 09:16:06;;;;;;;16.98;6.45;;;;;;;20.96;61.15;99437.66;5080294;28;20063;-82
2022/09/05 09:19:02;;;;;;;14.13;7.32;;;;;;;20.65;61.81;99426.56;5070211;28;20032;-83
2022/09/05 09:22:12;;;;;;;11.77;6.40;;;;;;;20.62;61.70;99420.94;5064260;28;20125;-80
2022/09/05 09:25:06;;;;;;;10.65;6.78;;;;;;;20.84;62.39;99421.84;5061885;28;20028;-80
2022/09/05 09:27:46;;;;;;;7.10;6.18;;;;;;;21.03;61.42;99427.22;5056805;28;20034;-81
2022/09/05 09:30:13;;;;;;;9.20;6.28;;;;;;;21.02;61.62;99419.34;5064631;28;20036;-81
2022/09/05 09:32:48;;;;;;;11.07;6.38;;;;;;;21.37;60.51;99402.31;5056291;28;20036;-81
2022/09/05 09:35:22;;;;;;;13.80;6.78;;;;;;;21.16;61.04;99398.44;5069060;28;20020;-81
2022/09/05 09:38:15;;;;;;;6.60;5.72;;;;;;;21.37;60.84;99415.91;5053899;28;20028;-81
2022/09/05 09:40:53;;;;;;;6.30;5.30;;;;;;;21.40;60.72;99382.72;5058930;28;20106;-80
2022/09/05 09:43:58;;;;;;;7.28;5.50;;;;;;;21.56;60.52;99394.81;5064890;28;20032;-81
2022/09/05 09:46:30;;;;;;;11.88;5.72;;;;;;;21.61;60.72;99395.53;5053063;28;20127;-81
2022/09/05 09:49:23;;;;;;;5.70;5.20;;;;;;;21.87;60.13;99392.22;5067298;28;20024;-80
2022/09/05 09:52:05;;;;;;;10.73;5.57;;;;;;;21.87;60.26;99387.59;5058464;28;20033;-81
2022/09/05 09:54:49;;;;;;;13.10;6.35;;;;;;;21.90;59.56;99387.00;5059874;28;20021;-81
2022/09/05 09:57:18;;;;;;;7.57;5.32;;;;;;;22.17;59.75;99386.06;5061135;28;20040;-81
2022/09/05 10:00:09;;;;;;;12.25;5.75;;;;;;;22.39;58.86;99377.81;5056661;28;20036;-81
2022/09/05 10:02:56;;;;;;;11.18;5.30;;;;;;;22.12;59.49;99381.53;5057420;28;20052;-80
2022/09/05 10:05:40;;;;;;;9.18;5.38;;;;;;;22.05;59.30;99373.00;5060787;28;20046;-80
2022/09/05 10:08:49;;;;;;;16.90;6.03;;;;;;;22.39;59.58;99358.78;5063168;28;20484;-81
2022/09/05 10:12:12;;;;;;;15.50;5.88;;;;;;;22.51;58.91;99369.09;5051933;28;20032;-80
2022/09/05 10:15:03;;;;;;;13.68;6.05;;;;;;;22.83;58.38;99366.84;5044548;28;20078;-81
2022/09/05 10:17:28;;;;;;;5.65;5.05;;;;;;;22.87;58.16;99358.81;5066597;28;20582;-81
2022/09/05 10:20:13;;;;;;;18.52;5.63;;;;;;;22.81;58.29;99357.38;5062970;28;20103;-81
2022/09/05 10:22:51;;;;;;;8.85;5.43;;;;;;;22.82;58.21;99359.81;5060771;28;20050;-81
2022/09/05 10:25:28;;;;;;;14.32;5.63;;;;;;;22.84;57.86;99351.31;5058400;28;20352;-81
2022/09/05 10:28:13;;;;;;;11.52;5.05;;;;;;;23.05;57.13;99353.13;5078115;28;20545;-80
2022/09/05 10:30:47;;;;;;;10.40;4.85;;;;;;;23.41;57.58;99341.16;5064534;28;20055;-81
2022/09/05 10:33:42;;;;;;;7.70;4.45;;;;;;;23.39;56.48;99335.25;5067593;28;20035;-80
2022/09/05 10:36:30;;;;;;;6.40;4.82;;;;;;;23.86;56.62;99334.22;5062255;28;20166;-81
2022/09/05 10:39:28;;;;;;;5.03;4.22;;;;;;;24.04;55.22;99335.00;5065771;28;20127;-81
2022/09/05 10:42:09;;;;;;;5.97;3.75;;;;;;;23.97;55.25;99334.69;5060048;28;20034;-80
2022/09/05 10:44:45;;;;;;;3.90;3.50;;;;;;;24.15;55.35;99306.28;5064278;28;20028;-81
2022/09/05 10:47:38;;;;;;;4.13;3.80;;;;;;;24.44;54.65;99333.63;5055822;28;20036;-80
2022/09/05 10:50:10;;;;;;;10.40;3.88;;;;;;;24.27;54.15;99329.03;5060166;28;20387;-80
2022/09/05 10:52:56;;;;;;;4.53;3.58;;;;;;;24.40;54.43;99303.44;5063905;28;20033;-80
2022/09/05 10:55:56;;;;;;;8.15;4.15;;;;;;;24.46;54.30;99317.72;5057684;28;20024;-80
2022/09/05 10:58:42;;;;;;;5.90;3.75;;;;;;;24.55;53.18;99313.03;5059895;28;20040;-80
2022/09/05 11:01:31;;;;;;;7.00;3.53;;;;;;;24.76;52.70;99308.44;5056359;28;20382;-80
2022/09/05 11:04:06;;;;;;;5.30;3.65;;;;;;;25.12;53.06;99316.88;5062645;28;20033;-81
2022/09/05 11:06:41;;;;;;;6.15;3.13;;;;;;;25.31;52.49;99313.69;5049635;28;20035;-80
2022/09/05 11:09:15;;;;;;;8.60;2.85;;;;;;;25.48;52.24;99310.03;5059224;28;20484;-80
2022/09/05 11:12:08;;;;;;;2.85;2.65;;;;;;;25.27;51.03;99269.03;5081337;28;20135;-80
2022/09/05 11:14:48;;;;;;;3.83;2.85;;;;;;;25.66;51.12;99284.13;5061237;28;20040;-81
2022/09/05 11:17:39;;;;;;;4.28;2.72;;;;;;;25.64;50.15;99298.13;5057865;28;20032;-80
2022/09/05 11:20:13;;;;;;;3.80;2.30;;;;;;;25.79;51.23;99292.03;5060417;28;20968;-80
2022/09/05 11:22:42;;;;;;;4.50;1.98;;;;;;;25.51;49.97;99284.75;5062762;28;20039;-80
2022/09/05 11:25:26;;;;;;;5.97;2.22;;;;;;;25.33;49.16;99272.34;5058847;28;20055;-80
2022/09/05 11:27:53;;;;;;;8.93;3.85;;;;;;;25.75;49.35;99271.94;5025029;28;20043;-80
2022/09/05 11:30:26;;;;;;;2.30;2.10;;;;;;;26.03;48.74;99277.63;5058420;28;20037;-80
2022/09/05 11:33:28;;;;;;;2.10;1.92;;;;;;;26.30;48.33;99287.94;5049973;28;20033;-80
2022/09/05 11:35:57;;;;;;;4.55;2.45;;;;;;;26.48;49.24;99267.41;5060659;28;20052;-81
2022/09/05 11:38:54;;;;;;;2.40;2.20;;;;;;;26.73;45.93;99282.69;5058570;28;20070;-80
2022/09/05 11:41:28;;;;;;;1.73;1.63;;;;;;;26.71;45.54;99271.25;5001359;28;20043;-81
2022/09/05 11:44:05;;;;;;;1.60;1.50;;;;;;;26.97;46.09;99272.88;5061602;28;20024;-80
2022/09/05 11:46:39;;;;;;;2.35;2.15;;;;;;;26.90;46.68;99251.53;5061209;28;20062;-80
2022/09/05 11:49:55;;;;;;;4.53;2.17;;;;;;;27.10;46.87;99268.94;5067498;28;20052;-80
2022/09/05 11:52:21;;;;;;;2.45;2.25;;;;;;;26.84;45.89;99266.63;5069840;28;20028;-80
2022/09/05 11:55:21;;;;;;;2.92;2.20;;;;;;;26.96;46.22;99263.03;5068863;28;20025;-80
2022/09/05 11:58:28;;;;;;;2.80;1.90;;;;;;;27.07;45.91;99237.53;5059972;28;20715;-81
2022/09/05 12:01:26;;;;;;;4.40;1.90;;;;;;;26.96;42.14;99263.03;5073936;28;20503;-80
2022/09/05 12:04:29;;;;;;;3.60;2.05;;;;;;;27.23;44.51;99254.06;5066836;28;20060;-80
2022/09/05 12:07:08;;;;;;;2.15;1.90;;;;;;;27.35;44.06;99254.84;5061477;28;20032;-80
2022/09/05 12:10:02;;;;;;;2.92;1.83;;;;;;;27.27;44.01;99253.00;5070187;28;20020;-80
2022/09/05 12:12:34;;;;;;;2.33;2.22;;;;;;;27.19;43.15;99245.75;5057771;28;20025;-80
2022/09/05 12:15:19;;;;;;;3.58;1.65;;;;;;;27.43;43.35;99233.91;5069664;28;20107;-80
2022/09/05 12:18:05;;;;;;;2.58;1.63;;;;;;;27.45;43.68;99235.16;5065517;28;20388;-80
2022/09/05 12:20:50;;;;;;;2.35;2.05;;;;;;;27.33;43.63;99240.66;5070622;28;20236;-80
2022/09/05 12:23:24;;;;;;;2.20;1.92;;;;;;;27.19;43.44;99239.47;5052497;28;20021;-80
2022/09/05 12:26:07;;;;;;;5.47;2.00;;;;;;;26.56;42.36;99225.41;5063351;28;20493;-80
2022/09/05 12:28:46;;;;;;;7.85;2.60;;;;;;;25.86;42.49;99231.31;5058905;28;21633;-79
2022/09/05 12:31:18;;;;;;;4.78;2.13;;;;;;;26.22;44.48;99217.69;5067139;28;20062;-80
2022/09/05 12:33:49;;;;;;;1.75;1.48;;;;;;;26.97;42.82;99212.56;5066821;28;20468;-80
2022/09/05 12:36:35;;;;;;;3.92;2.47;;;;;;;26.54;43.76;99226.88;5051290;28;20032;-80
2022/09/05 12:39:34;;;;;;;2.28;2.08;;;;;;;26.72;41.45;99207.13;5068470;28;20058;-80
2022/09/05 12:42:36;;;;;;;4.13;2.33;;;;;;;27.16;42.98;99220.97;5063281;28;20047;-80
2022/09/05 12:45:20;;;;;;;4.35;2.22;;;;;;;27.70;40.54;99213.84;5057144;28;20131;-81
2022/09/05 12:47:58;;;;;;;2.25;1.90;;;;;;;27.82;39.05;99202.81;5060893;28;20040;-80